Airfield :
LOGIN :

Register | Disclaimer

   EN    FR    IT 

 










Legend :    VFR   Marginal VFR   IFR   Intensive IFR   Very Intensive IFR
Visi :
Ceiling :
>= 8 km
>= 3000ft
5 to 8 km
1000 to 3000 ft
1500m to 5 km
500 to 1000 ft
800 to 1500m
200 to 500 ft
< 800m
< 200 ft
Symbols :   Thunderstorms  Fog  Heavy snow  Heavy precipitations  Wind > 20 kt
SIGMETs :     Misc.  Thunderstorms  Icing  Turbulence  Mountain Waves  Volcanic Ashes







- Airport Elevation : 299 ft
- IATA code : EDM
- Download approach charts


LFRI - La Roche Sur Yon - Les Ajoncs

CURRENT METAR :
  • 172300Z AUTO 36003KT 9999 BKN049 OVC250 03/02 Q1020

EXPIRED METARs :
  • 172230Z AUTO 02005KT 9999 BKN047 03/02 Q1020
  • 172200Z AUTO 03005KT 9999 BKN044 BKN052 02/01 Q1020
  • 172130Z AUTO 01005KT 9999 SCT040 02/01 Q1019
  • 172100Z AUTO 34004KT 9999 BKN036 BKN049 03/02 Q1019 NOSIG
  • 172030Z AUTO 31005KT 9999 SCT033 03/02 Q1019 NOSIG

TAF TAF LFRI
Valid from the 17 at 18:00 until the 18 at 18:00 UTC


171700Z 1718/1818 32008KT 9999 SCT025
PROB30
TEMPO 1718/1719 4000 SHRA SCT020TCU
BECMG 1722/1724 VRB03KT
PROB30
TEMPO 1803/1808 0500 FG VV///
BECMG 1812/1814 16010KT
No reported NOTAMs for that airfield.



MET'MAP, your aeronautical weather chart ! - Copyright ORBIFLY December 2007 - Disclaimer

ORBIFLY MET'MAP TEAM :

Programming & Development : Alexandra Zaïnal
Concept & Development : Baudouin d'Aumeries
Co-Development & Prog : Marc-Olivier Méhu
Technical & hardware support : Manuel Goepfert

Contact : metmap@orbifly.com




SOURCES & CREDITS :

   NOAA